Time;durP1;ratioP1;P1;durP2;ratioP2;P2;SDS_P1;SDS_P2;PMS_P1;PMS_P2;Temp;Humidity;BMP_temperature;BMP_pressure;BME280_temperature;BME280_humidity;BME280_pressure;Samples;Min_cycle;Max_cycle;Signal;HPM_P1;HPM_P2
2023/02/28 00:00:16;;;;;;;;;29.00;25.00;;;;;4.13;47.91;102534.78;2016488;28;2840905;-76
2023/02/28 00:01:28;;;;;;;;;28.00;25.00;;;;;4.11;47.87;102528.66;2025139;27;3584645;-76
2023/02/28 00:02:41;;;;;;;;;27.67;24.00;;;;;4.09;48.16;102535.56;2032816;28;3586702;-76
2023/02/28 00:03:52;;;;;;;;;29.33;25.33;;;;;4.08;48.12;102532.06;2022846;28;3580439;-76
2023/02/28 00:05:05;;;;;;;;;31.33;27.00;;;;;4.07;47.86;102532.06;2036389;27;3581469;-76
2023/02/28 00:06:17;;;;;;;;;28.33;24.67;;;;;4.05;48.55;102535.47;2015574;28;3590876;-76
2023/02/28 00:07:30;;;;;;;;;26.33;24.67;;;;;4.04;48.66;102533.75;2015402;27;3588843;-76
2023/02/28 00:08:41;;;;;;;;;25.67;25.67;;;;;4.03;48.64;102531.97;2024624;27;3583672;-76
2023/02/28 00:09:53;;;;;;;;;32.67;28.33;;;;;4.04;48.08;102543.25;2036118;28;3589859;-76
2023/02/28 00:11:11;;;;;;;;;33.67;29.00;;;;;4.03;47.90;102539.78;2029111;28;3600258;-76
2023/02/28 00:12:22;;;;;;;;;29.00;25.67;;;;;4.03;48.07;102531.97;2023703;28;3579410;-76
2023/02/28 00:13:37;;;;;;;;;30.67;25.67;;;;;4.03;48.56;102542.38;2031866;27;3583575;-76
2023/02/28 00:14:49;;;;;;;;;24.00;22.67;;;;;4.03;48.08;102538.91;2024844;28;3579418;-77
2023/02/28 00:16:09;;;;;;;;;25.33;23.67;;;;;4.03;48.05;102541.50;2024849;27;3587723;-76
2023/02/28 00:17:22;;;;;;;;;27.80;24.80;;;;;4.02;48.70;102540.63;2043917;28;2837722;-76
2023/02/28 00:18:34;;;;;;;;;33.00;29.67;;;;;4.01;48.92;102536.25;2017791;28;3600219;-76
2023/02/28 00:19:50;;;;;;;;;25.00;21.67;;;;;4.01;48.73;102548.38;2030683;27;3576313;-76
2023/02/28 00:21:01;;;;;;;;;25.67;25.67;;;;;4.00;48.24;102538.84;2023469;28;3573168;-76
2023/02/28 00:22:14;;;;;;;;;25.67;24.33;;;;;3.99;48.22;102531.88;2034400;28;3576643;-76
2023/02/28 00:23:26;;;;;;;;;24.00;23.00;;;;;3.98;48.59;102543.09;2024692;28;3589302;-76
2023/02/28 00:24:38;;;;;;;;;28.00;25.00;;;;;4.00;48.89;102534.50;2024556;27;3587157;-76
2023/02/28 00:25:50;;;;;;;;;26.33;26.33;;;;;4.00;48.42;102537.09;2035695;27;3578377;-76
2023/02/28 00:27:00;;;;;;;;;30.00;26.00;;;;;4.02;48.38;102532.84;2025810;28;2842458;-76
2023/02/28 00:28:12;;;;;;;;;28.67;26.00;;;;;4.04;48.00;102530.25;2039249;28;3575601;-76
2023/02/28 00:29:24;;;;;;;;;32.00;27.00;;;;;4.03;48.40;102531.97;2037665;27;3594053;-76
2023/02/28 00:30:36;;;;;;;;;25.00;22.67;;;;;4.04;48.68;102540.66;2039881;28;3585759;-76
2023/02/28 00:31:48;;;;;;;;;32.67;28.00;;;;;4.04;48.51;102543.25;2039065;28;3604417;-76
2023/02/28 00:33:00;;;;;;;;;30.20;25.80;;;;;4.03;48.56;102551.91;2044634;28;3597565;-76
2023/02/28 00:34:12;;;;;;;;;30.33;23.33;;;;;4.00;47.93;102542.31;2041291;28;3599185;-76
2023/02/28 00:35:24;;;;;;;;;24.67;22.67;;;;;4.00;48.90;102547.50;2039910;27;3575244;-76
2023/02/28 00:36:36;;;;;;;;;32.67;26.33;;;;;3.98;48.21;102554.41;2039751;28;3588788;-76
2023/02/28 00:37:48;;;;;;;;;26.00;25.00;;;;;3.98;49.00;102554.41;2030780;28;3577382;-76
2023/02/28 00:38:59;;;;;;;;;29.00;27.67;;;;;3.98;48.68;102553.50;2024322;28;3585643;-76
2023/02/28 00:40:11;;;;;;;;;25.33;21.67;;;;;3.97;48.80;102552.66;2039807;28;3583564;-76
2023/02/28 00:41:23;;;;;;;;;29.00;25.00;;;;;3.99;48.19;102560.50;2035016;28;3578349;-76
2023/02/28 00:42:35;;;;;;;;;29.33;25.00;;;;;3.97;48.49;102564.78;2040749;27;3580464;-76
2023/02/28 00:43:47;;;;;;;;;24.67;23.00;;;;;3.97;48.20;102563.06;2033383;27;3573157;-76
2023/02/28 00:44:59;;;;;;;;;25.00;22.00;;;;;3.99;48.26;102560.50;2037490;27;3579405;-76
2023/02/28 00:46:11;;;;;;;;;22.00;20.67;;;;;4.00;48.00;102559.66;2022858;27;3567964;-76
2023/02/28 00:47:23;;;;;;;;;26.67;24.67;;;;;4.00;48.08;102554.44;2028387;28;3580448;-76
2023/02/28 00:48:35;;;;;;;;;25.00;22.33;;;;;4.02;48.37;102560.56;2033827;28;3590882;-76
2023/02/28 00:49:47;;;;;;;;;22.00;22.00;;;;;4.03;48.73;102555.41;2026035;27;3583974;-76
2023/02/28 00:50:59;;;;;;;;;22.67;21.00;;;;;4.05;47.87;102560.63;2032804;28;3572163;-76
2023/02/28 00:52:10;;;;;;;;;23.00;18.00;;;;;4.03;48.51;102552.78;2028020;28;2831626;-76
2023/02/28 00:53:22;;;;;;;;;22.67;19.67;;;;;4.04;48.35;102556.28;2024258;27;2829447;-76
2023/02/28 00:54:32;;;;;;;;;29.50;28.00;;;;;4.04;48.01;102556.28;2025378;27;2846098;-76
2023/02/28 00:55:45;;;;;;;;;27.80;24.60;;;;;4.05;48.33;102560.63;2049168;28;2838771;-76
2023/02/28 00:56:58;;;;;;;;;27.33;21.33;;;;;4.04;47.99;102562.38;2011108;28;3575241;-76
2023/02/28 00:58:09;;;;;;;;;28.00;25.33;;;;;4.06;48.10;102565.00;2024129;28;3577362;-76
2023/02/28 00:59:21;;;;;;;;;24.67;22.67;;;;;4.07;47.89;102558.06;2040595;27;3586701;-76
2023/02/28 01:00:33;;;;;;;;;30.00;26.00;;;;;4.06;48.70;102559.78;2032611;28;3581912;-76
2023/02/28 01:01:46;;;;;;;;;25.67;24.00;;;;;4.06;47.93;102562.41;2032396;28;3579402;-76
2023/02/28 01:02:57;;;;;;;;;25.33;25.33;;;;;4.06;47.82;102565.00;2016384;28;3584609;-76
2023/02/28 01:04:08;;;;;;;;;26.50;23.00;;;;;4.07;48.40;102571.09;2036904;28;2841940;-76
2023/02/28 01:05:20;;;;;;;;;25.67;23.00;;;;;4.05;48.23;102568.44;2007021;27;3572072;-76
2023/02/28 01:06:32;;;;;;;;;20.00;19.00;;;;;4.05;48.12;102560.63;2041046;28;2829554;-76
2023/02/28 01:07:43;;;;;;;;;26.33;21.00;;;;;4.03;48.20;102565.81;2024435;27;2827371;-76
2023/02/28 01:08:54;;;;;;;;;26.00;22.50;;;;;4.01;47.74;102567.50;2024751;28;2850266;-76
2023/02/28 01:10:06;;;;;;;;;23.67;21.33;;;;;3.99;47.77;102563.09;2040066;28;3583584;-76
2023/02/28 01:11:18;;;;;;;;;26.00;20.00;;;;;3.99;48.05;102565.69;2024265;27;3586710;-76
2023/02/28 01:12:29;;;;;;;;;24.33;23.00;;;;;3.98;48.51;102572.63;2025585;28;3583027;-76
2023/02/28 01:13:42;;;;;;;;;24.00;23.33;;;;;3.97;47.90;102565.66;2040911;27;3593986;-76
2023/02/28 01:14:54;;;;;;;;;27.00;24.00;;;;;3.96;48.64;102571.69;2024517;27;3590200;-76
2023/02/28 01:16:06;;;;;;;;;26.00;19.00;;;;;3.96;48.04;102566.50;2040338;27;3579437;-76
2023/02/28 01:17:18;;;;;;;;;31.00;23.00;;;;;3.96;47.59;102571.69;2024594;27;3594003;-76
2023/02/28 01:18:30;;;;;;;;;23.67;21.00;;;;;3.97;48.11;102573.47;2036013;27;3581486;-76
2023/02/28 01:19:42;;;;;;;;;21.33;20.00;;;;;3.97;47.67;102573.47;2017324;28;2828400;-76
2023/02/28 01:20:54;;;;;;;;;20.00;20.00;;;;;3.96;47.98;102573.41;2023991;28;2832661;-76
2023/02/28 01:22:06;;;;;;;;;24.00;23.00;;;;;3.96;47.72;102570.81;2022945;28;3588765;-76
2023/02/28 01:23:17;;;;;;;;;25.00;25.00;;;;;3.93;48.16;102576.81;2027492;28;2846137;-76
2023/02/28 01:24:30;;;;;;;;;26.00;22.50;;;;;3.93;48.29;102569.91;2030087;27;2850245;-76
2023/02/28 01:25:42;;;;;;;;;23.40;19.20;;;;;3.93;47.96;102575.09;2024887;27;2839864;-76
2023/02/28 01:26:54;;;;;;;;;20.67;18.00;;;;;3.91;47.79;102568.09;2015896;27;3552273;-76
2023/02/28 01:28:06;;;;;;;;;26.33;25.00;;;;;3.91;48.41;102571.59;2040795;28;3584614;-76
2023/02/28 01:29:17;;;;;;;;;28.50;24.50;;;;;3.91;47.78;102569.00;2041782;27;1837804;-76
2023/02/28 01:30:29;;;;;;;;;19.33;18.00;;;;;3.90;47.56;102571.56;1996555;28;3565877;-76
2023/02/28 01:31:41;;;;;;;;;23.00;23.00;;;;;3.89;47.60;102569.78;2049031;28;1844550;-76
2023/02/28 01:32:53;;;;;;;;;28.00;25.33;;;;;3.86;48.07;102578.41;2015838;28;3591882;-76
2023/02/28 01:34:04;;;;;;;;;23.00;23.00;;;;;3.85;47.74;102574.06;2019922;28;3588766;-76
2023/02/28 01:35:15;;;;;;;;;27.75;24.00;;;;;3.85;47.90;102579.25;2039720;28;1848268;-76
2023/02/28 01:36:29;;;;;;;;;22.67;19.83;;;;;3.82;48.05;102573.97;2022019;28;1846714;-76
2023/02/28 01:37:42;;;;;;;;;26.40;21.80;;;;;3.80;47.65;102573.91;2012144;28;2841885;-76
2023/02/28 01:38:53;;;;;;;;;25.33;21.67;;;;;3.81;48.15;102567.00;2009843;28;3589803;-76
2023/02/28 01:40:06;;;;;;;;;26.40;24.00;;;;;3.81;47.67;102573.09;2045121;28;3580427;-76
2023/02/28 01:41:19;;;;;;;;;24.00;19.00;;;;;3.80;47.58;102562.66;2021478;28;2836727;-76
2023/02/28 01:42:30;;;;;;;;;21.50;21.50;;;;;3.81;47.51;102567.00;1999882;28;2835659;-76
2023/02/28 01:43:44;;;;;;;;;22.67;22.67;;;;;3.80;47.66;102562.66;2007057;28;3583528;-76
2023/02/28 01:45:13;;;;;;;;;21.00;17.00;;;;;3.80;47.45;102563.50;2021910;28;2818968;-76
2023/02/28 01:46:25;;;;;;;;;19.00;19.00;;;;;3.80;47.50;102560.91;2000678;28;3570015;-76
2023/02/28 01:47:42;;;;;;;;;22.00;18.00;;;;;3.79;47.86;102559.16;2023589;28;3563782;-76
2023/02/28 01:49:01;;;;;;;;;19.67;14.00;;;;;3.79;47.83;102564.38;2016305;28;3529397;-76
2023/02/28 01:50:20;;;;;;;;;23.50;20.50;;;;;3.79;48.19;102561.75;2055512;27;1848779;-76
2023/02/28 01:52:00;;;;;;;;;21.67;21.67;;;;;3.78;47.63;102562.59;2000540;28;3566922;-76
2023/02/28 01:53:17;;;;;;;;;20.00;19.00;;;;;3.74;47.47;102563.38;2024266;27;2830559;-76
2023/02/28 01:54:32;;;;;;;;;28.00;23.00;;;;;3.75;47.39;102569.47;2023220;28;3585122;-76
2023/02/28 01:55:49;;;;;;;;;23.00;21.00;;;;;3.74;48.00;102568.56;2017087;28;3565304;-76
2023/02/28 01:57:18;;;;;;;;;24.67;23.00;;;;;3.75;47.75;102566.84;2023972;28;3588804;-76
2023/02/28 01:58:28;;;;;;;;;24.00;19.50;;;;;3.76;47.69;102569.47;2022986;28;2828379;-76
2023/02/28 01:59:51;;;;;;;;;22.00;18.17;;;;;3.76;48.00;102569.47;2030301;28;2834104;-76
2023/02/28 02:01:03;;;;;;;;;23.33;21.67;;;;;3.76;48.01;102569.47;1993645;28;3571037;-76
2023/02/28 02:02:17;;;;;;;;;20.00;17.50;;;;;3.77;47.92;102567.75;2023539;28;2831924;-76
2023/02/28 02:03:30;;;;;;;;;21.67;21.33;;;;;3.76;47.97;102569.47;2000526;28;3571173;-76
2023/02/28 02:04:55;;;;;;;;;27.67;23.00;;;;;3.77;47.88;102563.44;2024162;27;3591902;-76
2023/02/28 02:06:08;;;;;;;;;23.50;22.00;;;;;3.77;47.78;102566.06;2051525;28;1844091;-76
2023/02/28 02:07:21;;;;;;;;;28.67;21.33;;;;;3.76;47.78;102563.38;1992609;28;3585676;-76
2023/02/28 02:08:32;;;;;;;;;23.00;20.67;;;;;3.75;48.06;102557.34;2022836;28;3565841;-76
2023/02/28 02:09:44;;;;;;;;;18.40;17.00;;;;;3.73;48.32;102561.59;2048516;28;1841961;-76
2023/02/28 02:10:59;;;;;;;;;20.33;19.33;;;;;3.71;48.25;102552.88;2001149;28;3571065;-76
2023/02/28 02:12:55;;;;;;;;;23.00;19.33;;;;;3.70;48.11;102559.78;2014757;28;3572097;-76
2023/02/28 02:14:44;;;;;;;;;19.50;19.33;;;;;3.70;47.73;102558.94;2034965;28;1842506;-76
2023/02/28 02:16:19;;;;;;;;;29.00;22.67;;;;;3.69;47.46;102557.16;1999027;28;3593000;-76
2023/02/28 02:17:39;;;;;;;;;22.33;18.67;;;;;3.67;48.39;102554.53;2016142;28;3564848;-76
2023/02/28 02:19:02;;;;;;;;;21.67;21.00;;;;;3.68;48.00;102558.03;2023405;27;3577358;-76
2023/02/28 02:20:16;;;;;;;;;19.33;17.00;;;;;3.67;48.44;102556.25;2023508;28;2827420;-76
2023/02/28 02:21:54;;;;;;;;;19.50;19.50;;;;;3.67;47.87;102549.34;2021527;28;2822141;-76
2023/02/28 02:23:32;;;;;;;;;26.00;21.50;;;;;3.67;47.86;102548.44;2000453;27;2841920;-77
2023/02/28 02:25:16;;;;;;;;;19.67;19.67;;;;;3.67;48.26;102548.44;1998861;28;3564811;-76
2023/02/28 02:26:33;;;;;;;;;24.50;20.00;;;;;3.67;47.73;102553.66;2024327;27;2833603;-76
2023/02/28 02:27:55;;;;;;;;;26.17;23.50;;;;;3.66;47.90;102549.28;2029373;28;1844098;-76
2023/02/28 02:29:06;;;;;;;;;21.67;21.67;;;;;3.64;47.80;102543.16;2000293;28;2838895;-76
2023/02/28 02:30:41;;;;;;;;;28.67;23.00;;;;;3.63;48.38;102546.63;2022532;28;3602318;-76
2023/02/28 02:32:24;;;;;;;;;17.67;17.67;;;;;3.62;47.89;102550.94;2014790;28;2824889;-76
2023/02/28 02:33:58;;;;;;;;;19.60;18.60;;;;;3.61;48.27;102551.75;2028548;28;2822182;-75
2023/02/28 02:35:21;;;;;;;;;21.00;20.00;;;;;3.59;47.97;102541.34;2001339;28;2839884;-76
2023/02/28 02:37:11;;;;;;;;;23.33;19.33;;;;;3.57;48.00;102543.00;1999216;28;2829435;-76
2023/02/28 02:38:48;;;;;;;;;21.00;19.50;;;;;3.55;47.63;102539.50;2003799;27;2829432;-75
2023/02/28 02:40:19;;;;;;;;;25.33;21.33;;;;;3.54;47.96;102548.13;2000324;28;3567960;-76
2023/02/28 02:41:52;;;;;;;;;23.33;20.00;;;;;3.55;48.46;102542.09;2023739;28;2834777;-76
2023/02/28 02:43:15;;;;;;;;;21.33;20.00;;;;;3.55;47.77;102542.09;2022858;28;2832656;-76
2023/02/28 02:44:49;;;;;;;;;25.50;20.00;;;;;3.56;47.85;102546.44;2021046;28;2837796;-76
2023/02/28 02:46:06;;;;;;;;;21.33;17.67;;;;;3.56;47.75;102545.56;1997069;28;3564835;-76
2023/02/28 02:47:23;;;;;;;;;21.00;19.00;;;;;3.55;48.05;102536.00;2013911;28;3566941;-76
2023/02/28 02:48:38;;;;;;;;;21.00;17.50;;;;;3.55;48.31;102536.00;2016801;28;2827345;-76
2023/02/28 02:49:53;;;;;;;;;17.00;17.00;;;;;3.54;48.10;102540.31;2000740;28;2820110;-76
2023/02/28 02:51:11;;;;;;;;;22.67;21.00;;;;;3.54;48.02;102549.84;2001258;27;3583550;-76
2023/02/28 02:52:31;;;;;;;;;19.33;17.67;;;;;3.53;48.04;102541.16;2023361;28;2818032;-76
2023/02/28 02:53:49;;;;;;;;;23.00;20.50;;;;;3.50;48.16;102535.91;2017148;28;2823171;-76
2023/02/28 02:55:03;;;;;;;;;26.00;20.00;;;;;3.49;47.65;102542.81;1992862;28;3572155;-76
2023/02/28 02:56:19;;;;;;;;;24.67;20.00;;;;;3.48;47.91;102538.44;2019437;28;3581505;-76
2023/02/28 02:57:40;;;;;;;;;22.00;21.33;;;;;3.46;48.48;102529.72;2022485;28;3573180;-76
2023/02/28 02:58:59;;;;;;;;;21.67;20.00;;;;;3.46;48.59;102542.72;2052571;27;1837808;-76
2023/02/28 03:00:17;;;;;;;;;23.33;20.67;;;;;3.44;47.87;102530.53;2028848;28;1840965;-76
2023/02/28 03:01:29;;;;;;;;;22.00;20.00;;;;;3.43;48.35;102532.25;2000633;28;2827352;-76
2023/02/28 03:02:41;;;;;;;;;21.00;19.50;;;;;3.44;48.38;102536.59;2000899;28;2826343;-76
2023/02/28 03:03:59;;;;;;;;;25.33;20.67;;;;;3.44;47.82;102540.91;2000717;28;3573140;-76
2023/02/28 03:05:21;;;;;;;;;17.00;15.00;;;;;3.43;48.70;102539.19;2023375;27;2804473;-76
2023/02/28 03:06:35;;;;;;;;;17.00;17.00;;;;;3.41;48.06;102530.47;2033659;27;1837864;-76
2023/02/28 03:07:45;;;;;;;;;23.00;21.50;;;;;3.38;48.43;102537.31;2000564;27;2833606;-76
2023/02/28 03:08:56;;;;;;;;;16.00;16.00;;;;;3.38;48.02;102536.47;2016243;28;2814812;-76
2023/02/28 03:10:50;;;;;;;;;21.33;20.00;;;;;3.38;48.02;102533.88;2015487;28;3562740;-76
2023/02/28 03:12:09;;;;;;;;;21.67;20.17;;;;;3.36;47.85;102532.91;2038437;28;1844111;-76
2023/02/28 03:13:34;;;;;;;;;21.80;15.80;;;;;3.33;48.64;102541.53;2009073;28;2820041;-76
2023/02/28 03:15:20;;;;;;;;;24.00;20.17;;;;;3.30;47.61;102538.84;2020893;28;1844186;-77
2023/02/28 03:16:45;;;;;;;;;20.00;18.33;;;;;3.29;48.25;102536.19;2020525;28;1842097;-76
2023/02/28 03:18:11;;;;;;;;;16.50;16.00;;;;;3.28;48.13;102540.53;1998320;27;2813847;-76
2023/02/28 03:19:44;;;;;;;;;16.75;12.75;;;;;3.26;48.29;102542.19;2006326;28;1860750;-76
2023/02/28 03:20:54;;;;;;;;;16.00;16.00;;;;;3.24;47.75;102536.97;2022250;27;2819432;-76
2023/02/28 03:22:27;;;;;;;;;18.00;18.00;;;;;3.20;47.55;102542.03;2016891;28;2829389;-76
2023/02/28 03:23:50;;;;;;;;;23.50;20.50;;;;;3.18;48.18;102547.22;1992920;28;2837778;-76
2023/02/28 03:25:42;;;;;;;;;18.83;15.50;;;;;3.16;48.23;102543.69;2028137;28;1828415;-77
2023/02/28 03:27:07;;;;;;;;;20.17;17.33;;;;;3.13;48.07;102543.59;2014716;28;1842025;-76
2023/02/28 03:28:36;;;;;;;;;24.00;20.50;;;;;3.12;48.04;102545.31;1999935;28;2824255;-76
2023/02/28 03:30:11;;;;;;;;;15.50;15.00;;;;;3.11;47.86;102538.34;2000924;28;2799217;-76
2023/02/28 03:31:41;;;;;;;;;17.33;17.33;;;;;3.10;47.76;102549.59;2040476;28;1833683;-76
2023/02/28 03:33:04;;;;;;;;;25.50;20.00;;;;;3.11;48.39;102545.28;2004927;27;2842470;-76
2023/02/28 03:34:41;;;;;;;;;21.17;19.83;;;;;3.11;48.07;102540.94;2032360;27;1842031;-76
2023/02/28 03:36:04;;;;;;;;;15.33;15.33;;;;;3.12;48.10;102540.09;2022787;28;1835746;-76
2023/02/28 03:37:22;;;;;;;;;19.83;17.67;;;;;3.11;48.51;102540.94;2024954;28;1843187;-76
2023/02/28 03:38:42;;;;;;;;;20.17;18.67;;;;;3.11;48.30;102545.28;2029256;28;1839929;-76
2023/02/28 03:40:01;;;;;;;;;15.17;15.17;;;;;3.09;48.30;102547.81;2030751;27;1841960;-76
2023/02/28 03:41:23;;;;;;;;;20.80;17.80;;;;;3.08;48.56;102543.47;2020384;27;2813784;-76
2023/02/28 03:42:37;;;;;;;;;15.00;14.00;;;;;3.08;47.72;102548.66;2002123;27;3521090;-76
2023/02/28 03:44:00;;;;;;;;;17.17;15.67;;;;;3.08;47.94;102548.66;2048956;28;1844050;-76
2023/02/28 03:45:17;;;;;;;;;20.00;19.00;;;;;3.07;47.84;102552.09;1996368;28;2823205;-76
2023/02/28 03:46:34;;;;;;;;;20.50;19.00;;;;;3.05;48.81;102543.38;2002529;27;2827353;-76
2023/02/28 03:48:02;;;;;;;;;22.00;16.00;;;;;3.07;48.07;102546.91;2026398;27;2824217;-76
2023/02/28 03:49:23;;;;;;;;;15.67;13.00;;;;;3.06;48.31;102534.75;2017556;27;1841924;-76
2023/02/28 03:50:40;;;;;;;;;18.17;13.83;;;;;3.05;48.22;102535.59;2033168;27;1842023;-76
2023/02/28 03:51:54;;;;;;;;;21.00;16.00;;;;;3.02;47.88;102541.56;2001740;28;2822172;-76
2023/02/28 03:53:11;;;;;;;;;17.00;14.33;;;;;3.03;48.30;102540.75;1998505;28;3539817;-76
2023/02/28 03:54:33;;;;;;;;;20.67;18.67;;;;;3.01;47.61;102544.13;2054504;28;1844535;-76
2023/02/28 03:55:49;;;;;;;;;22.50;15.50;;;;;3.00;47.53;102547.56;2003640;27;2825635;-76
2023/02/28 03:57:07;;;;;;;;;21.00;19.00;;;;;3.00;48.35;102544.97;2003584;28;2822129;-76
2023/02/28 03:58:36;;;;;;;;;19.75;15.00;;;;;2.98;47.81;102544.94;2018057;28;1856530;-76
2023/02/28 03:59:56;;;;;;;;;18.83;15.50;;;;;2.98;48.02;102547.53;2055664;28;1839881;-76
2023/02/28 04:01:25;;;;;;;;;16.00;15.00;;;;;2.97;48.35;102543.16;2004904;27;2815222;-76
2023/02/28 04:02:36;;;;;;;;;14.50;13.00;;;;;2.97;47.86;102545.75;2025616;28;2783609;-76
2023/02/28 04:03:47;;;;;;;;;17.00;17.00;;;;;2.98;47.85;102546.63;2034232;28;2823181;-76
2023/02/28 04:05:00;;;;;;;;;21.00;18.50;;;;;2.95;48.31;102547.44;1997415;28;2834012;-76
2023/02/28 04:06:18;;;;;;;;;18.67;15.00;;;;;2.96;48.37;102549.22;2002820;28;2817315;-76
2023/02/28 04:07:30;;;;;;;;;18.00;18.00;;;;;2.94;48.19;102544.81;2025053;28;2824803;-76
2023/02/28 04:08:43;;;;;;;;;27.00;19.67;;;;;2.95;48.06;102541.34;2046055;28;1842005;-76
2023/02/28 04:09:58;;;;;;;;;16.33;14.33;;;;;2.94;48.35;102550.84;2030328;28;1838452;-76
2023/02/28 04:11:16;;;;;;;;;16.00;15.00;;;;;2.95;47.97;102556.94;2003197;28;2823206;-76
2023/02/28 04:12:27;;;;;;;;;12.00;12.00;;;;;2.94;48.37;102557.78;2023758;28;3511705;-76
2023/02/28 04:13:38;;;;;;;;;19.00;18.00;;;;;2.92;47.62;102558.63;2037947;28;2825277;-76
2023/02/28 04:14:51;;;;;;;;;16.33;14.67;;;;;2.91;48.18;102546.44;2029831;28;2797174;-76
2023/02/28 04:16:11;;;;;;;;;20.20;18.00;;;;;2.92;47.95;102558.63;2027875;27;1828534;-76
2023/02/28 04:17:23;;;;;;;;;18.00;15.00;;;;;2.90;48.10;102552.50;2040875;27;1858658;-76
2023/02/28 04:18:36;;;;;;;;;19.67;17.17;;;;;2.89;47.85;102553.31;2055058;27;1841981;-76
2023/02/28 04:19:49;;;;;;;;;18.83;16.67;;;;;2.88;48.18;102551.59;2032249;28;1842058;-76
2023/02/28 04:21:03;;;;;;;;;16.33;16.17;;;;;2.88;47.87;102555.88;2033638;27;1837814;-76
2023/02/28 04:22:13;;;;;;;;;19.00;19.00;;;;;2.86;48.58;102552.38;1996399;28;2820068;-76
2023/02/28 04:23:25;;;;;;;;;18.00;16.00;;;;;2.86;47.99;102558.44;2008275;28;2817962;-76
2023/02/28 04:24:36;;;;;;;;;20.25;16.25;;;;;2.85;48.14;102563.59;2019588;28;1838913;-76
2023/02/28 04:25:48;;;;;;;;;22.00;18.33;;;;;2.83;48.29;102560.94;2001446;28;2825338;-76
2023/02/28 04:26:58;;;;;;;;;20.50;18.50;;;;;2.82;47.66;102561.78;2018021;28;2829460;-75
2023/02/28 04:28:09;;;;;;;;;20.00;16.00;;;;;2.80;47.78;102559.16;2012723;28;2825235;-76
2023/02/28 04:29:23;;;;;;;;;21.00;18.50;;;;;2.80;48.21;102561.75;2031063;28;1863810;-76
2023/02/28 04:30:33;;;;;;;;;18.00;18.00;;;;;2.78;48.30;102566.00;2026041;27;2821122;-76
2023/02/28 04:31:44;;;;;;;;;19.50;18.00;;;;;2.79;48.47;102566.91;2041184;28;2828383;-76
2023/02/28 04:32:55;;;;;;;;;19.00;16.50;;;;;2.79;48.00;102564.31;2016057;28;2822149;-76
2023/02/28 04:34:07;;;;;;;;;19.75;18.25;;;;;2.81;47.95;102565.22;2026144;27;1854492;-76
2023/02/28 04:35:21;;;;;;;;;21.50;16.17;;;;;2.81;48.37;102568.69;2055543;27;1839948;-75
2023/02/28 04:36:31;;;;;;;;;14.50;14.00;;;;;2.82;48.01;102566.97;2002318;28;2806541;-76
2023/02/28 04:37:43;;;;;;;;;19.80;19.20;;;;;2.82;48.31;102564.38;2026721;28;1839869;-76
2023/02/28 04:38:54;;;;;;;;;20.50;19.50;;;;;2.83;48.33;102570.47;2016078;28;2829382;-76
2023/02/28 04:40:05;;;;;;;;;16.00;15.00;;;;;2.80;47.96;102569.53;2001856;28;2801297;-76
2023/02/28 04:41:16;;;;;;;;;19.50;13.50;;;;;2.80;48.41;102571.25;2000041;28;2816891;-76
2023/02/28 04:42:27;;;;;;;;;18.00;18.00;;;;;2.78;48.28;102579.00;2012427;27;2816921;-76
2023/02/28 04:43:38;;;;;;;;;17.50;14.00;;;;;2.79;48.20;102572.09;2009081;28;2814912;-76
2023/02/28 04:44:49;;;;;;;;;21.50;15.50;;;;;2.78;47.40;102575.53;2027819;28;2821123;-76
2023/02/28 04:46:02;;;;;;;;;19.67;14.00;;;;;2.80;47.98;102579.94;2015927;28;3541881;-76
2023/02/28 04:47:16;;;;;;;;;15.83;15.00;;;;;2.80;47.95;102576.44;2055309;28;1839878;-76
2023/02/28 04:48:29;;;;;;;;;15.25;14.25;;;;;2.80;48.49;102584.22;2018227;27;1842020;-76
2023/02/28 04:49:41;;;;;;;;;15.00;13.50;;;;;2.80;48.19;102579.94;2025918;27;2811755;-76
2023/02/28 04:50:51;;;;;;;;;10.00;9.00;;;;;2.80;48.04;102577.31;2021357;28;3497126;-76
2023/02/28 04:52:02;;;;;;;;;20.50;18.00;;;;;2.81;48.27;102580.81;2028798;28;2819067;-76
2023/02/28 04:53:13;;;;;;;;;16.00;14.00;;;;;2.83;48.26;102578.25;2014856;27;2801344;-76
2023/02/28 04:54:25;;;;;;;;;16.00;16.00;;;;;2.83;48.15;102583.44;2039825;28;2827412;-76
2023/02/28 04:55:39;;;;;;;;;14.00;13.25;;;;;2.81;48.19;102579.06;2037002;27;1852456;-76
2023/02/28 04:56:50;;;;;;;;;15.67;13.67;;;;;2.81;48.11;102578.22;2020721;28;3530473;-76
2023/02/28 04:58:01;;;;;;;;;17.00;16.00;;;;;2.80;47.80;102585.13;2039901;27;2814872;-76
2023/02/28 04:59:13;;;;;;;;;20.00;20.00;;;;;2.81;48.01;102586.88;2016881;27;3566891;-76
2023/02/28 05:00:24;;;;;;;;;14.00;13.50;;;;;2.80;47.76;102584.22;2041535;28;2792990;-76
2023/02/28 05:01:36;;;;;;;;;20.00;14.00;;;;;2.80;47.92;102584.22;1998976;28;2827332;-76
2023/02/28 05:02:46;;;;;;;;;15.00;15.00;;;;;2.80;48.15;102579.94;1998482;28;2802386;-75
2023/02/28 05:03:59;;;;;;;;;15.75;15.75;;;;;2.81;47.67;102584.25;2052650;28;1834181;-76
2023/02/28 05:05:10;;;;;;;;;16.67;15.33;;;;;2.81;48.48;102586.88;2000674;28;3548169;-76
2023/02/28 05:06:23;;;;;;;;;18.50;15.00;;;;;2.83;48.15;102584.34;2031846;28;2810694;-76
2023/02/28 05:07:34;;;;;;;;;16.00;14.50;;;;;2.83;47.96;102581.72;1995486;28;2804464;-76
2023/02/28 05:08:45;;;;;;;;;15.00;13.50;;;;;2.85;47.89;102585.25;2016268;27;2804386;-76
2023/02/28 05:09:56;;;;;;;;;18.50;17.50;;;;;2.85;48.43;102582.66;2016867;28;2821092;-76
2023/02/28 05:11:18;;;;;;;;;18.33;15.33;;;;;2.82;47.93;102579.97;2013836;27;3538742;-75
2023/02/28 05:12:29;;;;;;;;;18.00;13.00;;;;;2.81;47.61;102589.47;2015211;27;1854410;-76
2023/02/28 05:13:40;;;;;;;;;19.50;16.00;;;;;2.81;47.71;102583.41;2023975;27;2815906;-76
2023/02/28 05:14:51;;;;;;;;;19.50;17.50;;;;;2.80;48.00;102587.72;2018435;27;2825235;-75
2023/02/28 05:16:02;;;;;;;;;13.00;13.00;;;;;2.80;47.76;102589.44;2041742;28;2792996;-76
2023/02/28 05:17:13;;;;;;;;;17.75;15.25;;;;;2.80;47.30;102597.22;2053258;27;1837826;-76
2023/02/28 05:18:23;;;;;;;;;18.50;15.00;;;;;2.78;48.10;102589.41;2001141;27;2814837;-76
2023/02/28 05:19:34;;;;;;;;;24.50;18.00;;;;;2.78;47.88;102593.69;2014919;27;2827309;-76
2023/02/28 05:20:45;;;;;;;;;19.50;17.50;;;;;2.79;47.78;102591.13;2017315;28;2824224;-75
2023/02/28 05:21:57;;;;;;;;;16.00;15.00;;;;;2.80;47.17;102592.91;2039126;28;2807561;-76
2023/02/28 05:23:12;;;;;;;;;19.00;18.40;;;;;2.81;47.86;102591.19;2025148;28;1842025;-76
2023/02/28 05:24:23;;;;;;;;;15.00;15.00;;;;;2.83;47.58;102589.53;1991279;28;2808626;-75
2023/02/28 05:25:34;;;;;;;;;19.50;18.50;;;;;2.83;48.08;102593.84;2004919;28;2820034;-76
2023/02/28 05:26:45;;;;;;;;;16.00;15.00;;;;;2.84;47.31;102595.59;2016982;28;2820438;-75
2023/02/28 05:27:56;;;;;;;;;16.00;13.00;;;;;2.84;47.59;102595.59;2053888;27;1831563;-76
2023/02/28 05:29:07;;;;;;;;;14.00;13.67;;;;;2.81;47.40;102593.81;1999959;27;3528727;-76
2023/02/28 05:30:18;;;;;;;;;15.50;14.25;;;;;2.83;47.51;102596.44;2054061;28;1839881;-75
2023/02/28 05:31:29;;;;;;;;;17.00;15.50;;;;;2.82;47.09;102598.13;1993883;28;2821112;-76
2023/02/28 05:32:42;;;;;;;;;12.00;9.00;;;;;2.84;47.59;102601.66;2038980;28;3491925;-76
2023/02/28 05:33:55;;;;;;;;;20.00;15.00;;;;;2.84;47.15;102603.41;2053720;28;1842013;-76
2023/02/28 05:35:06;;;;;;;;;16.67;15.00;;;;;2.83;47.53;102602.50;2000237;28;3534959;-75
2023/02/28 05:36:17;;;;;;;;;14.00;14.00;;;;;2.82;47.55;102605.94;2021324;28;3541899;-75
2023/02/28 05:37:28;;;;;;;;;14.33;12.67;;;;;2.81;47.61;102607.63;2038293;28;3513776;-76
2023/02/28 05:38:39;;;;;;;;;12.67;12.00;;;;;2.80;47.31;102603.31;2040605;27;3515911;-76
2023/02/28 05:39:50;;;;;;;;;15.00;14.33;;;;;2.81;47.64;102606.78;2034203;28;3548184;-76
2023/02/28 05:41:06;;;;;;;;;17.00;14.00;;;;;2.81;47.33;102601.59;2038441;28;2817982;-76
2023/02/28 05:42:16;;;;;;;;;15.00;12.67;;;;;2.83;47.76;102599.91;1998541;28;3514810;-76